Time;durP1;ratioP1;P1;durP2;ratioP2;P2;SDS_P1;SDS_P2;PMS_P1;PMS_P2;Temp;Humidity;BMP_temperature;BMP_pressure;BME280_temperature;BME280_humidity;BME280_pressure;Samples;Min_cycle;Max_cycle;Signal;HPM_P1;HPM_P2
2022/06/06 00:01:49;;;;;;;4.30;2.70;;;16.20;99.90;;;;;;4995612;28;20457;-79
2022/06/06 00:04:16;;;;;;;2.07;1.97;;;16.10;99.90;;;;;;4995564;28;21063;-79
2022/06/06 00:06:42;;;;;;;2.93;2.10;;;16.10;99.90;;;;;;5011974;28;20517;-79
2022/06/06 00:09:09;;;;;;;7.63;2.70;;;16.10;99.90;;;;;;4995068;28;20503;-78
2022/06/06 00:11:36;;;;;;;3.10;2.40;;;16.00;99.90;;;;;;5010641;28;20499;-79
2022/06/06 00:14:03;;;;;;;5.03;2.37;;;16.00;99.90;;;;;;4994388;28;20452;-77
2022/06/06 00:16:29;;;;;;;6.13;2.73;;;16.00;99.90;;;;;;4992405;28;20431;-79
2022/06/06 00:18:55;;;;;;;2.30;2.10;;;16.10;99.90;;;;;;4979434;28;20430;-79
2022/06/06 00:21:21;;;;;;;3.93;2.40;;;16.10;99.90;;;;;;4976278;28;20451;-80
2022/06/06 00:23:48;;;;;;;3.77;2.30;;;16.10;99.90;;;;;;4993014;28;20429;-79
2022/06/06 00:26:15;;;;;;;8.10;2.10;;;16.10;99.90;;;;;;5007615;28;20477;-80
2022/06/06 00:28:45;;;;;;;3.43;2.60;;;16.10;99.90;;;;;;5008128;28;20475;-80
2022/06/06 00:36:43;;;;;;;3.60;2.50;;;16.30;99.90;;;;;;4991346;28;20458;-79
2022/06/06 00:39:11;;;;;;;4.63;2.50;;;16.30;99.90;;;;;;4994671;28;20479;-80
2022/06/06 00:41:39;;;;;;;3.50;2.20;;;16.30;99.90;;;;;;5017585;28;20447;-82
2022/06/06 00:44:06;;;;;;;2.83;2.60;;;16.40;99.90;;;;;;5017029;28;20434;-81
2022/06/06 00:46:36;;;;;;;5.90;2.43;;;16.40;99.90;;;;;;4998254;28;20483;-78
2022/06/06 00:49:03;;;;;;;2.30;2.20;;;16.40;99.90;;;;;;5000925;28;20490;-81
2022/06/06 00:51:31;;;;;;;3.87;2.73;;;16.40;99.90;;;;;;5003971;28;20472;-79
2022/06/06 00:53:57;;;;;;;2.93;2.50;;;16.40;99.90;;;;;;5002607;28;20435;-80
2022/06/06 00:56:25;;;;;;;2.40;2.20;;;16.50;99.90;;;;;;5004132;28;20453;-79
2022/06/06 00:58:54;;;;;;;2.33;2.13;;;16.50;99.90;;;;;;5009666;28;20443;-77
2022/06/06 01:01:21;;;;;;;5.37;3.27;;;16.50;99.90;;;;;;4994829;28;20457;-79
2022/06/06 01:03:47;;;;;;;2.57;2.37;;;16.60;99.90;;;;;;4993872;28;20816;-78
2022/06/06 01:06:17;;;;;;;3.80;2.37;;;16.60;99.90;;;;;;5010017;28;20440;-78
2022/06/06 01:08:45;;;;;;;3.03;2.40;;;16.60;99.90;;;;;;5009159;28;20468;-78
2022/06/06 01:11:11;;;;;;;4.50;2.47;;;16.70;99.90;;;;;;5008226;28;20453;-76
2022/06/06 01:13:39;;;;;;;3.77;2.50;;;16.70;99.90;;;;;;4992693;28;20441;-76
2022/06/06 01:16:27;;;;;;;2.50;2.30;;;16.40;99.90;;;;;;4991173;28;20425;-75
2022/06/06 01:19:02;;;;;;;6.20;2.80;;;16.40;99.90;;;;;;4983731;28;20994;-74
2022/06/06 01:21:49;;;;;;;2.70;2.50;;;16.50;99.90;;;;;;4992707;28;20476;-74
2022/06/06 01:24:33;;;;;;;6.83;2.87;;;16.50;99.90;;;;;;4992844;28;20450;-76
2022/06/06 01:27:02;;;;;;;2.83;2.40;;;16.40;99.90;;;;;;4992265;28;20411;-73
2022/06/06 01:29:34;;;;;;;6.43;2.50;;;16.20;99.90;;;;;;4991408;28;20845;-73
2022/06/06 01:32:09;;;;;;;4.13;2.77;;;16.20;99.90;;;;;;4992611;28;21242;-75
2022/06/06 01:34:38;;;;;;;3.03;2.63;;;16.20;99.90;;;;;;4991148;28;20440;-75
2022/06/06 01:37:21;;;;;;;2.97;2.63;;;16.20;99.90;;;;;;4992294;28;20935;-75
2022/06/06 01:39:47;;;;;;;6.10;2.50;;;16.40;99.90;;;;;;4992405;28;20417;-75
2022/06/06 01:42:19;;;;;;;4.33;2.20;;;16.40;99.90;;;;;;4992303;28;20453;-74
2022/06/06 01:45:07;;;;;;;4.30;2.60;;;16.40;99.90;;;;;;4992335;28;20918;-75
2022/06/06 01:47:49;;;;;;;4.67;2.70;;;16.50;99.90;;;;;;4992477;28;20464;-75
2022/06/06 01:50:15;;;;;;;3.63;2.80;;;16.40;99.90;;;;;;4992698;28;20577;-75
2022/06/06 01:53:18;;;;;;;5.10;2.50;;;16.50;99.90;;;;;;4991051;28;20458;-76
2022/06/06 01:55:46;;;;;;;5.63;3.00;;;16.30;99.90;;;;;;4916468;29;20428;-76
2022/06/06 01:58:25;;;;;;;7.77;3.10;;;16.30;99.90;;;;;;4993370;28;20529;-75
2022/06/06 02:00:51;;;;;;;3.17;2.80;;;16.40;99.90;;;;;;4992655;28;20431;-76
2022/06/06 02:03:17;;;;;;;4.10;2.70;;;16.40;99.90;;;;;;4992337;28;20451;-75
2022/06/06 02:05:43;;;;;;;2.90;2.70;;;16.30;99.90;;;;;;4990272;28;20200;-76
2022/06/06 02:08:09;;;;;;;8.13;3.30;;;16.30;99.90;;;;;;4990624;28;21075;-76
2022/06/06 02:10:35;;;;;;;7.90;2.70;;;16.40;99.90;;;;;;5007175;28;20253;-76
2022/06/06 02:13:01;;;;;;;9.20;2.70;;;16.40;99.90;;;;;;4991973;28;20467;-76
2022/06/06 02:15:27;;;;;;;3.60;3.30;;;16.40;99.90;;;;;;4990634;28;20825;-75
2022/06/06 02:17:54;;;;;;;5.53;2.57;;;16.50;99.90;;;;;;4990494;28;20447;-77
2022/06/06 02:20:22;;;;;;;4.70;3.27;;;16.50;99.90;;;;;;4991936;28;20518;-75
2022/06/06 02:22:49;;;;;;;6.53;3.50;;;16.50;99.90;;;;;;4992017;28;20438;-75
2022/06/06 02:25:15;;;;;;;5.33;2.97;;;16.40;99.90;;;;;;4991910;28;20431;-75
2022/06/06 02:27:42;;;;;;;9.37;3.23;;;16.50;99.90;;;;;;4992075;28;20517;-75
2022/06/06 02:30:13;;;;;;;5.67;3.17;;;16.40;99.90;;;;;;4992253;28;20915;-74
2022/06/06 02:32:39;;;;;;;4.00;3.60;;;16.30;99.90;;;;;;4992215;28;20537;-75
2022/06/06 02:35:07;;;;;;;4.93;3.57;;;16.30;99.90;;;;;;4990857;28;20500;-74
2022/06/06 02:37:32;;;;;;;3.43;2.80;;;16.30;99.90;;;;;;4992115;28;20461;-74
2022/06/06 02:39:58;;;;;;;5.40;3.03;;;16.40;99.90;;;;;;4990721;28;20521;-75
2022/06/06 02:42:24;;;;;;;9.23;3.17;;;16.30;99.90;;;;;;4990694;28;20294;-74
2022/06/06 02:44:49;;;;;;;7.03;3.33;;;16.20;99.90;;;;;;4991740;28;20190;-74
2022/06/06 02:47:15;;;;;;;5.17;3.17;;;16.30;99.90;;;;;;4991047;28;20640;-74
2022/06/06 02:49:41;;;;;;;4.43;2.77;;;16.10;99.90;;;;;;4991307;28;20191;-75
2022/06/06 02:52:07;;;;;;;4.20;3.30;;;16.10;99.90;;;;;;4991016;28;20564;-75
2022/06/06 02:54:33;;;;;;;5.53;3.33;;;15.90;99.90;;;;;;4991177;28;20184;-74
2022/06/06 02:57:01;;;;;;;6.63;3.27;;;15.60;99.90;;;;;;4991012;28;20844;-75
2022/06/06 02:59:30;;;;;;;5.40;3.17;;;15.50;99.90;;;;;;4990855;28;20422;-74
2022/06/06 03:01:56;;;;;;;4.10;3.70;;;15.50;99.90;;;;;;4990896;28;20603;-75
2022/06/06 03:04:22;;;;;;;3.10;2.90;;;15.50;99.90;;;;;;4989481;28;20520;-74
2022/06/06 03:06:57;;;;;;;11.50;3.17;;;15.60;99.90;;;;;;4991132;28;20199;-73
2022/06/06 03:09:41;;;;;;;4.83;3.50;;;15.40;99.90;;;;;;4990523;28;20859;-77
2022/06/06 03:12:25;;;;;;;3.43;3.10;;;15.40;99.90;;;;;;5005520;28;20479;-74
2022/06/06 03:15:02;;;;;;;7.13;3.53;;;15.30;99.90;;;;;;4990782;28;20446;-75
2022/06/06 03:20:57;;;;;;;5.30;3.93;;;15.10;99.90;;;;;;4990839;28;20417;-76
2022/06/06 03:23:56;;;;;;;4.40;4.10;;;15.00;99.90;;;;;;4988996;28;20503;-76
2022/06/06 03:26:43;;;;;;;3.83;3.37;;;14.90;99.90;;;;;;4990550;28;21175;-76
2022/06/06 03:29:12;;;;;;;8.17;3.73;;;14.80;99.90;;;;;;4990410;28;20992;-76
2022/06/06 03:31:56;;;;;;;6.37;4.47;;;14.70;99.90;;;;;;4990473;28;21267;-76
2022/06/06 03:34:44;;;;;;;4.60;4.20;;;14.60;99.90;;;;;;4988952;28;20425;-76
2022/06/06 03:37:35;;;;;;;5.53;3.93;;;14.60;99.90;;;;;;4990197;28;20406;-75
2022/06/06 03:40:19;;;;;;;4.30;3.90;;;14.40;99.90;;;;;;4988822;28;20429;-75
2022/06/06 03:43:03;;;;;;;4.93;3.80;;;14.40;99.90;;;;;;4990758;28;20436;-76
2022/06/06 03:45:41;;;;;;;6.00;4.43;;;14.40;99.90;;;;;;4989506;28;20514;-76
2022/06/06 03:48:18;;;;;;;11.93;4.67;;;14.40;99.90;;;;;;5006345;28;20507;-76
2022/06/06 03:50:56;;;;;;;5.90;4.37;;;14.30;99.90;;;;;;4990178;28;20452;-75
2022/06/06 03:53:43;;;;;;;5.80;3.90;;;14.30;99.90;;;;;;4988668;28;20449;-76
2022/06/06 03:56:24;;;;;;;6.73;4.43;;;14.30;99.90;;;;;;4990387;28;20491;-76
2022/06/06 03:58:51;;;;;;;4.83;4.43;;;14.30;99.90;;;;;;4990151;28;20426;-76
2022/06/06 04:01:21;;;;;;;4.93;4.43;;;14.30;99.90;;;;;;4990081;28;20433;-76
2022/06/06 04:03:49;;;;;;;7.77;5.00;;;14.30;99.90;;;;;;4990540;28;20437;-75
2022/06/06 04:06:17;;;;;;;7.50;3.80;;;14.30;99.90;;;;;;4990474;28;20442;-75
2022/06/06 04:08:43;;;;;;;6.47;4.50;;;14.30;99.90;;;;;;4990144;28;20472;-76
2022/06/06 04:11:28;;;;;;;11.00;5.03;;;14.40;99.90;;;;;;4990418;28;20961;-77
2022/06/06 04:14:08;;;;;;;14.87;4.93;;;14.30;99.90;;;;;;4988883;28;20539;-75
2022/06/06 04:16:42;;;;;;;10.00;4.63;;;14.40;99.90;;;;;;4990555;28;20811;-75
2022/06/06 04:19:11;;;;;;;6.50;5.20;;;14.30;99.90;;;;;;4988838;28;21032;-74
2022/06/06 04:21:54;;;;;;;5.73;4.63;;;14.40;99.90;;;;;;4989381;28;20448;-76
2022/06/06 04:24:31;;;;;;;6.40;4.17;;;14.50;99.90;;;;;;4990179;28;20787;-74
2022/06/06 04:27:06;;;;;;;10.97;4.43;;;14.60;99.90;;;;;;4989787;28;20550;-74
2022/06/06 04:29:41;;;;;;;8.93;4.20;;;14.60;99.90;;;;;;4989884;28;20473;-75
2022/06/06 04:32:15;;;;;;;4.37;4.00;;;14.70;99.90;;;;;;4989755;28;20914;-75
2022/06/06 04:35:07;;;;;;;4.60;4.13;;;14.70;99.90;;;;;;5004526;28;20421;-75
2022/06/06 04:37:43;;;;;;;9.07;4.13;;;15.00;99.90;;;;;;4988309;28;20460;-75
2022/06/06 04:40:55;;;;;;;7.53;4.83;;;15.10;99.90;;;;;;4989749;28;20442;-76
2022/06/06 04:43:44;;;;;;;4.67;3.90;;;15.00;99.90;;;;;;4989183;28;20559;-75
2022/06/06 04:46:46;;;;;;;4.70;4.40;;;15.00;99.90;;;;;;4990734;28;20503;-78
2022/06/06 04:49:12;;;;;;;4.67;4.07;;;14.80;99.90;;;;;;4956794;28;20606;-74
2022/06/06 04:51:41;;;;;;;8.30;4.10;;;14.90;99.90;;;;;;4995572;28;20445;-79
2022/06/06 04:54:10;;;;;;;4.10;3.80;;;15.00;99.90;;;;;;5008363;28;20432;-76
2022/06/06 04:56:37;;;;;;;6.50;3.60;;;15.10;99.90;;;;;;4987919;28;20432;-75
2022/06/06 04:59:03;;;;;;;7.20;4.23;;;15.30;99.90;;;;;;5004316;28;20432;-76
2022/06/06 05:01:29;;;;;;;4.37;4.07;;;15.40;99.90;;;;;;4989161;28;20437;-75
2022/06/06 05:03:55;;;;;;;5.30;4.03;;;15.50;99.90;;;;;;4989471;28;20425;-78
2022/06/06 05:06:33;;;;;;;6.73;4.60;;;15.60;99.90;;;;;;4993402;28;20186;-79
2022/06/06 05:09:15;;;;;;;7.97;3.47;;;15.80;99.90;;;;;;4997213;28;20213;-80
2022/06/06 05:12:05;;;;;;;3.80;3.47;;;15.90;99.90;;;;;;4998932;28;20870;-82
2022/06/06 05:14:42;;;;;;;7.63;3.80;;;16.00;99.90;;;;;;4995297;28;20454;-77
2022/06/06 05:17:25;;;;;;;6.37;4.50;;;16.10;99.90;;;;;;4992790;28;20421;-78
2022/06/06 05:20:35;;;;;;;7.50;4.50;;;16.10;99.90;;;;;;4993047;28;20866;-78
2022/06/06 05:23:11;;;;;;;7.50;3.90;;;16.20;99.90;;;;;;5010065;28;20452;-78
2022/06/06 05:25:59;;;;;;;6.33;4.03;;;16.30;99.90;;;;;;5009931;28;20429;-78
2022/06/06 05:28:37;;;;;;;4.50;3.83;;;16.30;99.90;;;;;;4996637;28;20474;-78
2022/06/06 05:31:38;;;;;;;6.50;3.23;;;16.50;99.90;;;;;;4993377;28;20523;-78
2022/06/06 05:34:16;;;;;;;3.60;3.30;;;16.70;99.90;;;;;;4968572;28;20984;-79
2022/06/06 05:36:57;;;;;;;5.00;3.67;;;16.90;99.90;;;;;;4999996;28;20986;-78
2022/06/06 05:39:22;;;;;;;11.23;4.07;;;17.00;99.90;;;;;;4997698;28;20429;-76
2022/06/06 05:42:10;;;;;;;3.23;3.03;;;17.00;99.90;;;;;;4997777;28;20451;-76
2022/06/06 05:44:53;;;;;;;4.10;3.60;;;17.10;99.90;;;;;;4992780;28;20641;-75
2022/06/06 05:48:03;;;;;;;5.20;3.80;;;17.20;99.90;;;;;;4994125;28;20427;-75
2022/06/06 05:50:55;;;;;;;6.37;4.20;;;17.30;99.90;;;;;;4933788;29;20438;-75
2022/06/06 05:53:34;;;;;;;3.73;3.43;;;17.40;99.90;;;;;;4935277;29;20506;-75
2022/06/06 05:56:22;;;;;;;7.27;2.80;;;17.50;99.90;;;;;;4982396;28;20984;-75
2022/06/06 05:59:06;;;;;;;10.30;3.70;;;17.60;99.90;;;;;;4994682;28;20419;-75
2022/06/06 06:01:46;;;;;;;3.60;3.03;;;17.70;99.90;;;;;;4995054;28;20513;-75
2022/06/06 06:04:41;;;;;;;5.47;3.40;;;17.80;99.90;;;;;;5014721;28;20515;-74
2022/06/06 06:07:33;;;;;;;4.30;3.40;;;17.90;99.90;;;;;;5015381;28;20477;-75
2022/06/06 06:10:07;;;;;;;4.80;3.67;;;17.90;99.90;;;;;;5018245;28;20423;-75
2022/06/06 06:13:07;;;;;;;4.30;3.87;;;17.80;99.90;;;;;;5017453;28;20454;-75
2022/06/06 06:15:36;;;;;;;5.63;3.50;;;17.70;99.90;;;;;;5006285;28;20442;-75
2022/06/06 06:18:07;;;;;;;6.03;3.70;;;17.60;99.90;;;;;;4992279;28;20408;-75
2022/06/06 06:20:46;;;;;;;5.27;4.03;;;17.70;99.90;;;;;;4990701;28;20951;-75
2022/06/06 06:23:18;;;;;;;4.50;3.70;;;17.90;99.90;;;;;;4992372;28;20434;-75
2022/06/06 06:25:46;;;;;;;4.03;3.73;;;18.10;99.90;;;;;;4992643;28;20413;-75
2022/06/06 06:28:13;;;;;;;12.03;3.20;;;18.30;99.90;;;;;;4992394;28;20614;-75
2022/06/06 06:30:55;;;;;;;4.70;3.60;;;18.40;99.90;;;;;;4990908;28;20941;-75
2022/06/06 06:33:40;;;;;;;4.80;3.63;;;18.50;99.90;;;;;;4990568;28;20451;-75
2022/06/06 06:36:21;;;;;;;4.10;3.50;;;18.60;99.90;;;;;;4990710;28;20661;-75
2022/06/06 06:39:33;;;;;;;6.13;3.27;;;18.70;99.90;;;;;;4992055;28;20410;-75
2022/06/06 06:42:21;;;;;;;6.80;3.73;;;18.80;99.90;;;;;;4957461;28;20436;-75
2022/06/06 06:45:18;;;;;;;11.70;4.50;;;18.90;99.90;;;;;;4989532;28;20793;-75
2022/06/06 06:47:50;;;;;;;4.00;3.57;;;18.90;99.90;;;;;;4969394;28;20508;-75
2022/06/06 06:50:23;;;;;;;4.80;3.80;;;19.00;99.90;;;;;;4989148;28;20420;-75
2022/06/06 06:53:07;;;;;;;4.83;3.70;;;19.10;99.90;;;;;;4988968;28;20448;-75
2022/06/06 06:55:54;;;;;;;10.43;4.30;;;19.30;99.90;;;;;;4990664;28;20993;-75
2022/06/06 06:58:52;;;;;;;6.27;3.70;;;19.30;99.90;;;;;;4990236;28;20527;-75
2022/06/06 07:01:38;;;;;;;3.73;3.43;;;19.40;99.90;;;;;;4977215;28;20432;-75
2022/06/06 07:10:10;;;;;;;8.20;3.23;;;19.80;99.90;;;;;;4990335;28;20415;-75
2022/06/06 07:12:53;;;;;;;4.97;3.33;;;19.90;99.90;;;;;;5004781;28;20436;-75
2022/06/06 07:15:37;;;;;;;4.40;4.00;;;20.00;99.90;;;;;;4990008;28;20413;-75
2022/06/06 07:18:06;;;;;;;4.47;3.70;;;20.00;99.90;;;;;;5004593;28;20421;-75
2022/06/06 07:20:35;;;;;;;6.73;3.57;;;20.00;99.90;;;;;;4989727;28;20441;-75
2022/06/06 07:23:06;;;;;;;6.47;4.13;;;20.10;99.90;;;;;;4989243;28;20440;-75
2022/06/06 07:25:38;;;;;;;7.30;3.20;;;20.00;99.90;;;;;;4989215;28;20412;-75
2022/06/06 07:28:12;;;;;;;6.90;3.17;;;20.10;99.90;;;;;;4987795;28;20474;-75
2022/06/06 07:31:01;;;;;;;4.00;3.57;;;20.10;99.90;;;;;;4989000;28;20417;-75
2022/06/06 07:33:43;;;;;;;8.00;3.60;;;20.30;99.90;;;;;;4987484;28;20470;-75
2022/06/06 07:36:25;;;;;;;4.23;3.17;;;20.30;99.90;;;;;;4989216;28;20426;-75
2022/06/06 07:39:17;;;;;;;3.57;3.27;;;20.30;99.90;;;;;;4987566;28;20456;-75
2022/06/06 07:41:52;;;;;;;6.67;3.30;;;20.30;99.90;;;;;;4965443;28;20451;-75
2022/06/06 07:44:54;;;;;;;10.03;3.80;;;20.50;99.90;;;;;;4989157;28;20499;-75
2022/06/06 07:47:20;;;;;;;3.80;3.17;;;20.40;99.90;;;;;;4989041;28;20434;-75
2022/06/06 07:49:55;;;;;;;6.50;2.90;;;20.60;99.90;;;;;;4988755;28;20408;-75
2022/06/06 07:52:34;;;;;;;4.33;3.23;;;20.80;99.90;;;;;;4988545;28;20201;-75
2022/06/06 07:55:17;;;;;;;6.20;3.30;;;20.80;99.90;;;;;;4987283;28;20504;-75
2022/06/06 07:58:12;;;;;;;2.90;2.60;;;20.70;99.90;;;;;;4988482;28;20417;-75
2022/06/06 08:00:38;;;;;;;4.37;2.80;;;20.80;99.90;;;;;;4988347;28;20476;-75
2022/06/06 08:03:31;;;;;;;3.60;2.80;;;20.80;99.90;;;;;;4988222;28;20453;-75
2022/06/06 08:06:19;;;;;;;6.10;3.23;;;20.80;99.90;;;;;;4988333;28;20453;-75
2022/06/06 08:08:55;;;;;;;3.80;2.90;;;21.00;99.90;;;;;;5003147;28;20519;-75
2022/06/06 08:11:48;;;;;;;4.60;2.87;;;21.10;99.90;;;;;;4986739;28;20420;-75
2022/06/06 08:14:27;;;;;;;4.60;2.87;;;21.30;99.90;;;;;;4986053;28;20527;-75
2022/06/06 08:17:06;;;;;;;4.60;2.27;;;21.30;99.90;;;;;;4986512;28;20432;-75
2022/06/06 08:19:59;;;;;;;4.20;3.30;;;21.30;99.90;;;;;;4988159;28;20428;-75
2022/06/06 08:22:25;;;;;;;2.53;1.97;;;21.30;99.90;;;;;;4987872;28;20467;-75
2022/06/06 08:24:58;;;;;;;5.30;2.70;;;21.30;99.90;;;;;;4986330;28;20437;-75
2022/06/06 08:27:26;;;;;;;4.13;3.40;;;21.40;99.90;;;;;;4988074;28;20424;-75
2022/06/06 08:29:52;;;;;;;4.70;2.30;;;21.50;99.90;;;;;;4988086;28;20449;-75
2022/06/06 08:32:18;;;;;;;3.20;2.60;;;21.40;99.90;;;;;;4988095;28;21029;-75
2022/06/06 08:34:45;;;;;;;5.77;2.93;;;21.20;99.90;;;;;;4987809;28;20187;-75
2022/06/06 08:37:32;;;;;;;6.30;2.63;;;21.30;99.90;;;;;;4987837;28;20475;-75
2022/06/06 08:40:24;;;;;;;2.70;2.50;;;21.40;99.90;;;;;;4987952;28;21253;-75
2022/06/06 08:43:38;;;;;;;2.60;2.37;;;21.70;99.90;;;;;;4988078;28;20436;-75
2022/06/06 08:46:33;;;;;;;3.00;2.80;;;21.60;99.90;;;;;;4964712;28;20429;-75
2022/06/06 08:52:56;;;;;;;3.03;2.37;;;21.40;99.90;;;;;;4987998;28;20521;-75
2022/06/06 08:55:53;;;;;;;3.63;2.70;;;21.80;99.90;;;;;;4991301;28;20412;-75
2022/06/06 08:58:24;;;;;;;2.57;2.30;;;22.50;99.90;;;;;;4988512;28;20454;-75
2022/06/06 09:01:18;;;;;;;3.97;2.30;;;22.90;99.90;;;;;;4988598;28;20841;-75
2022/06/06 09:04:02;;;;;;;2.87;2.67;;;22.80;99.90;;;;;;4988633;28;20402;-75
2022/06/06 09:06:49;;;;;;;4.97;2.40;;;22.50;99.90;;;;;;4988541;28;20405;-75
2022/06/06 09:09:45;;;;;;;3.33;2.57;;;22.80;99.90;;;;;;4991285;28;20493;-76
2022/06/06 09:12:50;;;;;;;3.70;2.40;;;23.00;99.90;;;;;;4992151;28;20507;-76
2022/06/06 09:15:30;;;;;;;2.00;1.90;;;23.20;99.90;;;;;;4995943;28;20418;-78
2022/06/06 09:18:21;;;;;;;5.63;2.47;;;23.10;99.90;;;;;;4993883;28;20421;-77
2022/06/06 09:21:10;;;;;;;6.80;2.90;;;23.60;99.90;;;;;;4994519;28;20422;-80
2022/06/06 09:24:04;;;;;;;3.23;1.97;;;24.00;99.90;;;;;;5015407;28;20423;-82
2022/06/06 09:26:49;;;;;;;2.57;2.37;;;24.20;99.90;;;;;;4993983;28;20426;-78
2022/06/06 09:29:40;;;;;;;5.70;2.30;;;24.00;98.90;;;;;;4991787;28;20504;-78
2022/06/06 09:32:05;;;;;;;2.40;2.20;;;23.40;99.90;;;;;;4991571;28;20433;-78
2022/06/06 09:34:34;;;;;;;4.33;2.53;;;23.60;99.90;;;;;;4992058;28;20430;-77
2022/06/06 09:37:08;;;;;;;4.13;2.50;;;23.70;99.90;;;;;;4991955;28;20231;-78
2022/06/06 09:39:58;;;;;;;2.97;2.40;;;23.50;99.90;;;;;;4990248;28;20431;-77
2022/06/06 09:42:43;;;;;;;3.73;2.47;;;23.30;99.90;;;;;;4962721;28;20820;-77
2022/06/06 09:45:17;;;;;;;2.23;2.00;;;23.20;99.90;;;;;;4989963;28;20410;-76
2022/06/06 09:48:12;;;;;;;3.57;2.20;;;23.40;99.90;;;;;;4991392;28;20409;-76
2022/06/06 09:50:54;;;;;;;3.27;2.10;;;23.60;99.90;;;;;;4967477;28;20445;-76
2022/06/06 09:59:01;;;;;;;5.20;2.40;;;23.70;99.50;;;;;;4990183;28;20805;-78
2022/06/06 09:59:51;;;;;;;4.60;1.70;;;23.90;99.90;;;;;;4991977;28;20456;-76
2022/06/06 10:02:17;;;;;;;2.10;2.00;;;24.00;99.60;;;;;;4991145;28;20567;-76
2022/06/06 10:05:15;;;;;;;2.20;1.90;;;23.80;99.50;;;;;;4989893;28;20436;-76
2022/06/06 10:07:58;;;;;;;3.83;2.27;;;24.00;99.80;;;;;;4991402;28;20255;-76
2022/06/06 10:10:42;;;;;;;2.27;1.60;;;24.30;97.90;;;;;;4991298;28;20491;-75
2022/06/06 10:13:20;;;;;;;3.40;2.17;;;24.20;96.10;;;;;;4991124;28;20809;-75
2022/06/06 10:16:04;;;;;;;2.10;1.87;;;24.20;98.10;;;;;;4991328;28;20421;-75
2022/06/06 10:18:54;;;;;;;2.03;1.83;;;24.60;97.60;;;;;;4991178;28;20418;-75
2022/06/06 10:21:41;;;;;;;2.80;1.90;;;25.20;96.80;;;;;;4990361;28;20419;-75
2022/06/06 10:24:22;;;;;;;4.10;2.07;;;25.30;95.20;;;;;;4990856;28;20416;-74
2022/06/06 10:26:47;;;;;;;2.07;1.93;;;25.30;95.00;;;;;;4990851;28;20451;-76
2022/06/06 10:32:36;;;;;;;4.70;1.90;;;25.30;94.90;;;;;;4990315;28;20211;-76
2022/06/06 10:35:24;;;;;;;3.03;1.80;;;24.90;95.60;;;;;;4990234;28;20420;-76
2022/06/06 10:38:11;;;;;;;2.17;1.97;;;25.30;95.70;;;;;;4990998;28;20429;-75
2022/06/06 10:40:55;;;;;;;2.90;2.17;;;25.30;95.00;;;;;;4991018;28;20428;-76
2022/06/06 10:43:42;;;;;;;2.07;1.87;;;25.00;94.40;;;;;;4990083;28;20539;-75
2022/06/06 10:46:21;;;;;;;4.73;1.60;;;24.30;93.50;;;;;;4990035;28;20421;-75
2022/06/06 10:48:53;;;;;;;6.30;2.07;;;24.10;97.00;;;;;;4988410;28;20477;-75
2022/06/06 10:51:40;;;;;;;2.37;2.03;;;23.90;97.70;;;;;;4990111;28;20414;-75
2022/06/06 10:54:11;;;;;;;2.17;1.90;;;23.60;96.70;;;;;;4990100;28;20410;-75
2022/06/06 10:56:57;;;;;;;2.40;2.20;;;23.40;98.90;;;;;;4990073;28;20411;-75
2022/06/06 10:59:28;;;;;;;4.10;1.70;;;23.20;97.60;;;;;;4989767;28;20458;-75
2022/06/06 11:02:06;;;;;;;3.93;2.00;;;23.00;99.80;;;;;;4989961;28;20483;-76
2022/06/06 11:04:47;;;;;;;7.00;2.63;;;22.90;99.90;;;;;;4990352;28;20415;-75
2022/06/06 11:07:52;;;;;;;2.00;1.90;;;22.90;99.00;;;;;;4991007;28;20423;-75
2022/06/06 11:10:21;;;;;;;3.13;1.70;;;22.80;98.30;;;;;;4997089;28;20422;-75
2022/06/06 11:12:52;;;;;;;3.23;1.90;;;22.80;99.20;;;;;;4996474;28;20518;-76
2022/06/06 11:15:18;;;;;;;2.90;1.93;;;22.90;98.40;;;;;;4996392;28;20400;-76
2022/06/06 11:18:13;;;;;;;4.17;3.67;;;23.00;99.90;;;;;;4995887;28;20415;-76
2022/06/06 11:21:05;;;;;;;6.43;4.07;;;23.20;98.40;;;;;;4998094;28;20204;-76
2022/06/06 11:23:42;;;;;;;5.80;3.00;;;23.60;97.30;;;;;;5012725;28;20390;-77
2022/06/06 11:26:32;;;;;;;2.20;2.00;;;23.90;99.10;;;;;;5014414;28;20487;-75
2022/06/06 11:29:18;;;;;;;1.57;1.47;;;24.00;96.70;;;;;;5015733;28;20470;-75
2022/06/06 11:32:02;;;;;;;2.00;1.50;;;24.50;96.70;;;;;;4993575;28;20994;-76
2022/06/06 11:35:01;;;;;;;2.33;1.97;;;24.60;96.10;;;;;;4990381;28;20415;-76
2022/06/06 11:37:49;;;;;;;2.40;2.20;;;24.90;97.10;;;;;;4989390;28;20419;-75
2022/06/06 11:40:18;;;;;;;2.13;1.93;;;25.30;96.70;;;;;;4989052;28;20926;-74
2022/06/06 11:43:05;;;;;;;3.80;2.13;;;25.70;94.50;;;;;;4988794;28;21231;-75
2022/06/06 11:45:51;;;;;;;4.80;2.30;;;25.90;93.90;;;;;;4988985;28;20418;-74
2022/06/06 11:48:55;;;;;;;4.00;2.10;;;25.80;92.70;;;;;;4988828;28;20456;-75
2022/06/06 11:52:06;;;;;;;4.83;1.90;;;26.00;95.20;;;;;;4980410;28;20431;-74
2022/06/06 11:55:06;;;;;;;2.73;1.80;;;26.50;94.50;;;;;;4974530;28;20499;-76
2022/06/06 11:58:04;;;;;;;2.07;1.97;;;26.60;90.20;;;;;;4990223;28;20914;-76
2022/06/06 12:00:39;;;;;;;3.20;2.20;;;26.80;89.40;;;;;;4990139;28;21119;-75
2022/06/06 12:03:37;;;;;;;1.53;1.37;;;27.10;92.00;;;;;;4990119;28;20440;-75
2022/06/06 12:06:21;;;;;;;2.13;1.67;;;27.20;89.10;;;;;;4978348;28;20421;-75
2022/06/06 12:09:14;;;;;;;3.80;1.93;;;27.50;92.40;;;;;;4990026;28;20452;-75
2022/06/06 12:11:46;;;;;;;1.70;1.53;;;27.70;90.30;;;;;;4990047;28;20469;-75
2022/06/06 12:14:40;;;;;;;2.20;2.00;;;27.70;90.10;;;;;;4989943;28;20455;-75
2022/06/06 12:17:58;;;;;;;3.70;1.93;;;27.30;91.70;;;;;;4989924;28;20419;-75
2022/06/06 12:21:01;;;;;;;2.07;1.50;;;26.80;86.40;;;;;;4988306;28;20460;-75
2022/06/06 12:23:55;;;;;;;4.73;1.83;;;27.10;92.80;;;;;;4990016;28;20444;-75
2022/06/06 12:26:55;;;;;;;2.00;1.90;;;27.40;86.10;;;;;;4990085;28;20482;-75
2022/06/06 12:29:32;;;;;;;2.03;1.80;;;27.40;84.90;;;;;;4968227;28;20481;-75
2022/06/06 12:32:10;;;;;;;1.70;1.60;;;27.30;90.30;;;;;;4990455;28;20531;-75
2022/06/06 12:34:37;;;;;;;5.73;1.63;;;27.60;87.60;;;;;;4989095;28;20443;-75
2022/06/06 12:37:18;;;;;;;4.90;1.87;;;27.40;84.30;;;;;;4990553;28;20490;-75
2022/06/06 12:40:14;;;;;;;1.90;1.53;;;27.20;87.40;;;;;;4990518;28;20599;-75
2022/06/06 12:43:20;;;;;;;3.60;2.10;;;27.10;88.10;;;;;;4988224;28;20457;-74
2022/06/06 12:46:16;;;;;;;3.77;1.90;;;26.80;87.50;;;;;;4975847;28;20425;-75
2022/06/06 12:49:05;;;;;;;3.00;1.73;;;26.90;90.30;;;;;;4988313;28;20567;-74
2022/06/06 12:51:43;;;;;;;1.67;1.50;;;26.40;85.50;;;;;;4989567;28;20795;-74
2022/06/06 12:54:24;;;;;;;3.83;1.80;;;26.10;90.20;;;;;;4989727;28;20503;-74
2022/06/06 12:56:54;;;;;;;3.03;1.40;;;25.80;89.70;;;;;;4989022;28;20420;-74
2022/06/06 12:59:26;;;;;;;2.93;2.03;;;26.00;88.90;;;;;;4989599;28;20516;-74
2022/06/06 13:02:03;;;;;;;2.67;1.63;;;26.00;86.10;;;;;;4989474;28;20459;-75
2022/06/06 13:04:42;;;;;;;1.93;1.70;;;26.00;88.00;;;;;;4989673;28;20452;-74
2022/06/06 13:07:11;;;;;;;3.03;1.70;;;25.90;83.80;;;;;;4989566;28;20417;-74
2022/06/06 13:09:58;;;;;;;2.30;1.50;;;26.20;87.10;;;;;;4989396;28;20965;-74
2022/06/06 13:12:40;;;;;;;2.50;1.37;;;26.40;89.50;;;;;;4989372;28;20468;-74
2022/06/06 13:15:36;;;;;;;1.73;1.63;;;26.50;89.60;;;;;;4987798;28;20487;-74
2022/06/06 13:18:39;;;;;;;2.53;1.50;;;26.60;90.30;;;;;;4989447;28;20471;-74
2022/06/06 13:21:17;;;;;;;2.80;1.43;;;26.40;87.70;;;;;;4989095;28;20786;-74
2022/06/06 13:24:15;;;;;;;1.50;1.40;;;25.80;85.50;;;;;;4988967;28;20445;-74
2022/06/06 13:27:08;;;;;;;1.67;1.40;;;25.90;88.90;;;;;;4956038;28;20450;-74
2022/06/06 13:29:35;;;;;;;5.27;1.40;;;25.90;90.30;;;;;;4978184;28;20503;-74
2022/06/06 13:32:04;;;;;;;2.50;1.47;;;25.80;87.30;;;;;;4988961;28;20511;-75
2022/06/06 13:35:04;;;;;;;2.60;1.53;;;25.70;88.60;;;;;;4988807;28;20859;-74
2022/06/06 13:37:46;;;;;;;2.00;1.43;;;25.70;88.90;;;;;;4988884;28;20438;-74
2022/06/06 13:40:28;;;;;;;1.97;1.50;;;25.80;90.50;;;;;;4987354;28;20416;-74
2022/06/06 13:43:22;;;;;;;3.40;1.80;;;26.50;86.90;;;;;;4988941;28;20527;-74
2022/06/06 13:46:11;;;;;;;2.90;1.30;;;27.00;86.30;;;;;;4988820;28;20512;-74
2022/06/06 13:49:12;;;;;;;6.20;1.53;;;26.80;80.60;;;;;;4987603;28;20583;-74
2022/06/06 13:51:44;;;;;;;2.07;1.70;;;26.80;79.90;;;;;;4988798;28;20502;-74
2022/06/06 13:54:28;;;;;;;2.17;1.60;;;27.00;83.60;;;;;;4988526;28;20425;-74
2022/06/06 13:57:03;;;;;;;1.47;1.37;;;27.00;84.10;;;;;;4991295;28;20432;-74
2022/06/06 14:00:19;;;;;;;3.30;1.57;;;27.00;90.80;;;;;;4993918;28;20864;-74
2022/06/06 14:02:53;;;;;;;2.33;1.77;;;26.90;79.70;;;;;;4983966;28;20507;-74
2022/06/06 14:05:37;;;;;;;3.20;1.43;;;27.00;83.10;;;;;;4991241;28;20924;-74
2022/06/06 14:08:17;;;;;;;2.37;1.83;;;27.00;82.40;;;;;;4992020;28;20468;-74
2022/06/06 14:10:52;;;;;;;4.93;1.40;;;26.70;79.60;;;;;;4992175;28;20428;-74
2022/06/06 14:13:53;;;;;;;1.63;1.50;;;26.40;85.20;;;;;;4990627;28;21040;-75
2022/06/06 14:16:44;;;;;;;1.97;1.60;;;26.10;85.20;;;;;;4992238;28;20448;-74